createdAt,value
2018-03-27T00:02:06.960Z,97390.20
2018-03-27T00:04:34.491Z,97393.44
2018-03-27T00:07:01.996Z,97393.88
2018-03-27T00:09:29.559Z,97392.41
2018-03-27T00:11:57.133Z,97393.33
2018-03-27T00:14:24.688Z,97394.39
2018-03-27T00:16:52.269Z,97394.58
2018-03-27T00:19:19.858Z,97400.67
2018-03-27T00:21:47.365Z,97392.63
2018-03-27T00:24:15.041Z,97395.02
2018-03-27T00:26:54.365Z,97399.15
2018-03-27T00:29:33.706Z,97391.98
2018-03-27T00:32:13.209Z,97390.52
2018-03-27T00:34:52.723Z,97384.33
2018-03-27T00:37:32.047Z,97393.06
2018-03-27T00:40:11.316Z,97399.59
2018-03-27T00:42:49.693Z,97390.93
2018-03-27T00:45:17.327Z,97389.41
2018-03-27T00:47:44.910Z,97394.30
2018-03-27T00:50:12.423Z,97390.77
2018-03-27T00:52:39.945Z,97386.81
2018-03-27T00:55:07.510Z,97388.05
2018-03-27T00:57:35.123Z,97391.34
2018-03-27T01:00:02.706Z,97391.12
2018-03-27T01:02:30.276Z,97390.05
2018-03-27T01:04:57.872Z,97396.35
2018-03-27T01:07:25.419Z,97391.06
2018-03-27T01:09:52.948Z,97392.09
2018-03-27T01:12:20.465Z,97390.77
2018-03-27T01:14:48.015Z,97390.27
2018-03-27T01:17:15.525Z,97387.92
2018-03-27T01:19:43.041Z,97383.08
2018-03-27T01:22:10.625Z,97380.38
2018-03-27T01:24:38.193Z,97376.78
2018-03-27T01:27:05.721Z,97376.22
2018-03-27T01:29:33.256Z,97375.36
2018-03-27T01:32:00.830Z,97379.23
2018-03-27T01:34:28.342Z,97374.75
2018-03-27T01:36:55.880Z,97380.75
2018-03-27T01:39:23.421Z,97381.20
2018-03-27T01:41:50.931Z,97384.05
2018-03-27T01:44:18.575Z,97392.34
2018-03-27T01:46:46.132Z,97392.53
2018-03-27T01:49:13.682Z,97388.94
2018-03-27T01:51:41.314Z,97384.84
2018-03-27T01:54:08.821Z,97380.67
2018-03-27T01:56:36.329Z,97385.02
2018-03-27T01:59:03.967Z,97383.55
2018-03-27T02:01:31.467Z,97372.33
2018-03-27T02:03:59.001Z,97380.06
2018-03-27T02:06:26.529Z,97374.13
2018-03-27T02:08:54.033Z,97387.50
2018-03-27T02:11:27.185Z,97379.27
2018-03-27T02:14:00.287Z,97388.80
2018-03-27T02:16:33.590Z,97383.80
2018-03-27T02:19:06.526Z,97373.73
2018-03-27T02:21:33.536Z,97377.83
2018-03-27T02:24:11.846Z,97349.70
2018-03-27T02:26:39.457Z,97377.16
2018-03-27T02:29:06.958Z,97375.03
2018-03-27T02:31:34.495Z,97377.73
2018-03-27T02:34:02.032Z,97375.53
2018-03-27T02:36:29.528Z,97367.20
2018-03-27T02:38:57.076Z,97375.89
2018-03-27T02:41:24.605Z,97381.00
2018-03-27T02:43:52.110Z,97383.22
2018-03-27T02:46:19.603Z,97382.33
2018-03-27T02:48:48.161Z,97381.00
2018-03-27T02:51:15.801Z,97383.77
2018-03-27T02:53:43.428Z,97384.13
2018-03-27T02:56:11.063Z,97366.45
2018-03-27T02:58:38.552Z,97381.11
2018-03-27T03:01:06.177Z,97345.66
2018-03-27T03:03:33.714Z,97377.98
2018-03-27T03:06:01.228Z,97375.66
2018-03-27T03:08:28.732Z,97376.36
2018-03-27T03:10:58.105Z,97374.67
2018-03-27T03:13:25.637Z,97371.79
2018-03-27T03:15:53.207Z,97370.77
2018-03-27T03:18:20.794Z,97378.59
2018-03-27T03:20:48.342Z,97371.38
2018-03-27T03:23:15.872Z,97374.00
2018-03-27T03:25:43.599Z,97369.86
2018-03-27T03:28:11.146Z,97379.68
2018-03-27T03:30:38.798Z,97374.48
2018-03-27T03:33:06.426Z,97387.86
2018-03-27T03:35:34.069Z,97385.89
2018-03-27T03:38:01.795Z,97377.05
2018-03-27T03:40:29.382Z,97381.53
2018-03-27T03:42:56.937Z,97281.92
2018-03-27T03:45:24.489Z,97389.05
2018-03-27T03:47:52.100Z,97391.68
2018-03-27T03:50:19.665Z,97382.25
2018-03-27T03:52:47.200Z,97385.46
2018-03-27T03:55:14.852Z,97383.96
2018-03-27T03:57:42.465Z,97378.27
2018-03-27T04:00:10.002Z,97383.98
2018-03-27T04:02:37.675Z,97379.09
2018-03-27T04:05:05.180Z,97378.02
2018-03-27T04:07:32.726Z,97365.08
2018-03-27T04:10:00.318Z,97388.17
2018-03-27T04:12:27.926Z,97387.84
2018-03-27T04:14:55.432Z,97386.53
2018-03-27T04:17:23.025Z,97390.05
2018-03-27T04:19:50.620Z,97388.80
2018-03-27T04:22:18.225Z,97388.16
2018-03-27T04:24:45.825Z,97384.08
2018-03-27T04:27:13.412Z,97384.66
2018-03-27T04:29:40.976Z,97387.70
2018-03-27T04:32:08.563Z,97387.64
2018-03-27T04:34:36.057Z,97385.06
2018-03-27T04:37:03.613Z,97388.00
2018-03-27T04:39:31.186Z,97391.29
2018-03-27T04:41:58.725Z,97374.70
2018-03-27T04:44:26.247Z,97370.95
2018-03-27T04:46:53.808Z,97378.42
2018-03-27T04:49:21.331Z,97377.42
2018-03-27T04:51:48.839Z,97371.87
2018-03-27T04:54:16.366Z,97372.33
2018-03-27T04:56:43.858Z,97373.40
2018-03-27T04:59:11.424Z,97377.65
2018-03-27T05:01:38.988Z,97372.75
2018-03-27T05:04:06.538Z,97376.41
2018-03-27T05:06:34.095Z,97383.59
2018-03-27T05:09:01.662Z,97381.24
2018-03-27T05:11:29.195Z,97385.86
2018-03-27T05:13:56.715Z,97389.53
2018-03-27T05:16:24.268Z,97388.93
2018-03-27T05:18:51.794Z,97398.88
2018-03-27T05:21:19.389Z,97388.95
2018-03-27T05:23:46.995Z,97398.97
2018-03-27T05:26:14.513Z,97399.86
2018-03-27T05:28:42.019Z,97398.76
2018-03-27T05:31:09.588Z,97398.65
2018-03-27T05:33:37.112Z,97403.55
2018-03-27T05:36:04.623Z,97397.98
2018-03-27T05:38:32.152Z,97392.99
2018-03-27T05:40:59.762Z,97393.91
2018-03-27T05:43:27.265Z,97394.73
2018-03-27T05:45:54.789Z,97398.11
2018-03-27T05:48:22.312Z,97397.03
2018-03-27T05:50:49.830Z,97394.15
2018-03-27T05:53:17.367Z,97391.00
2018-03-27T05:55:44.972Z,97396.68
2018-03-27T05:58:12.483Z,97404.34
2018-03-27T06:00:40.049Z,97406.02
2018-03-27T06:03:07.595Z,97405.94
2018-03-27T06:05:35.188Z,97402.54
2018-03-27T06:08:02.736Z,97405.53
2018-03-27T06:10:30.271Z,97400.95
2018-03-27T06:12:57.867Z,97403.38
2018-03-27T06:15:25.451Z,97402.83
2018-03-27T06:17:53.018Z,97409.13
2018-03-27T06:20:20.578Z,97408.72
2018-03-27T06:22:54.406Z,97405.99
2018-03-27T06:25:22.039Z,97412.42
2018-03-27T06:27:49.661Z,97411.14
2018-03-27T06:30:17.267Z,97402.89
2018-03-27T06:32:45.688Z,97407.66
2018-03-27T06:35:13.197Z,97387.63
2018-03-27T06:37:40.791Z,97412.96
2018-03-27T06:40:08.326Z,97411.48
2018-03-27T06:42:35.856Z,97349.22
2018-03-27T06:45:03.404Z,97415.01
2018-03-27T06:47:30.907Z,97414.50
2018-03-27T06:49:58.458Z,97414.30
2018-03-27T06:52:26.044Z,97416.25
2018-03-27T06:54:53.583Z,97417.23
2018-03-27T06:57:21.146Z,97419.12
2018-03-27T06:59:48.672Z,97418.28
2018-03-27T07:02:16.263Z,97419.47
2018-03-27T07:04:43.934Z,97416.59
2018-03-27T07:07:11.731Z,97412.24
2018-03-27T07:09:39.258Z,97411.13
2018-03-27T07:12:06.844Z,97418.77
2018-03-27T07:14:34.426Z,97417.05
2018-03-27T07:17:01.981Z,97403.08
2018-03-27T07:19:31.010Z,97401.13
2018-03-27T07:21:58.567Z,97398.59
2018-03-27T07:24:26.117Z,97398.50
2018-03-27T07:26:53.658Z,97398.91
2018-03-27T07:29:21.217Z,97410.14
2018-03-27T07:31:56.769Z,97407.16
2018-03-27T07:50:34.140Z,97408.93
2018-03-27T07:53:17.574Z,97412.40
2018-03-27T07:56:11.469Z,97407.09
2018-03-27T08:01:54.488Z,97412.09
2018-03-27T08:04:21.978Z,97420.34
2018-03-27T08:06:49.469Z,97418.36
2018-03-27T08:09:17.063Z,97423.70
2018-03-27T08:11:44.566Z,97416.31
2018-03-27T08:14:12.156Z,97406.97
2018-03-27T08:16:39.682Z,97404.50
2018-03-27T08:19:07.184Z,97404.05
2018-03-27T08:21:34.680Z,97401.21
2018-03-27T08:24:02.243Z,97414.19
2018-03-27T08:26:29.719Z,97402.73
2018-03-27T08:28:57.213Z,97394.39
2018-03-27T08:31:24.759Z,97397.98
2018-03-27T08:33:52.603Z,97409.09
2018-03-27T08:36:20.120Z,97401.03
2018-03-27T08:38:47.625Z,97409.09
2018-03-27T08:41:15.136Z,97397.22
2018-03-27T08:43:42.644Z,97405.67
2018-03-27T08:46:10.254Z,97395.58
2018-03-27T08:48:37.800Z,97399.55
2018-03-27T08:51:05.275Z,97399.10
2018-03-27T08:53:32.818Z,97403.95
2018-03-27T08:56:00.303Z,97407.02
2018-03-27T08:58:27.844Z,97402.17
2018-03-27T09:00:55.356Z,97400.95
2018-03-27T09:03:22.850Z,97402.63
2018-03-27T09:05:50.839Z,97407.94
2018-03-27T09:08:18.368Z,97412.61
2018-03-27T09:10:45.858Z,97413.59
2018-03-27T09:13:13.374Z,97420.44
2018-03-27T09:15:40.890Z,97417.11
2018-03-27T09:18:08.382Z,97413.64
2018-03-27T09:20:35.899Z,97402.47
2018-03-27T09:23:03.430Z,97401.69
2018-03-27T09:25:30.923Z,97390.83
2018-03-27T09:27:58.409Z,97389.00
2018-03-27T09:30:25.926Z,97378.59
2018-03-27T09:32:53.432Z,97381.84
2018-03-27T09:35:20.931Z,97382.22
2018-03-27T09:37:48.466Z,97370.38
2018-03-27T09:40:16.105Z,97377.90
2018-03-27T09:42:43.598Z,97361.34
2018-03-27T09:45:11.131Z,97365.00
2018-03-27T09:47:38.627Z,97361.38
2018-03-27T09:50:06.114Z,97371.20
2018-03-27T09:52:33.644Z,97373.53
2018-03-27T09:55:01.140Z,97373.38
2018-03-27T09:57:28.639Z,97376.16
2018-03-27T09:59:56.163Z,97367.27
2018-03-27T10:02:23.655Z,97349.34
2018-03-27T10:04:51.146Z,97351.23
2018-03-27T10:07:18.666Z,97347.03
2018-03-27T10:09:46.149Z,97345.72
2018-03-27T10:12:13.654Z,97342.16
2018-03-27T10:14:41.179Z,97342.03
2018-03-27T10:17:08.679Z,97342.99
2018-03-27T10:19:36.172Z,97337.07
2018-03-27T10:22:03.703Z,97340.14
2018-03-27T10:24:31.192Z,97336.72
2018-03-27T10:26:58.695Z,97335.81
2018-03-27T10:29:26.253Z,97344.47
2018-03-27T10:31:53.756Z,97348.34
2018-03-27T10:34:21.250Z,97338.91
2018-03-27T10:36:48.795Z,97336.45
2018-03-27T10:39:16.295Z,97337.41
2018-03-27T10:41:43.795Z,97346.97
2018-03-27T10:44:11.334Z,97328.92
2018-03-27T10:46:38.859Z,97321.72
2018-03-27T10:49:06.350Z,97320.23
2018-03-27T10:51:33.899Z,97309.42
2018-03-27T10:54:01.395Z,97311.72
2018-03-27T10:56:28.886Z,97308.92
2018-03-27T10:58:56.411Z,97296.45
2018-03-27T11:01:23.916Z,97289.12
2018-03-27T11:03:51.458Z,97290.78
2018-03-27T11:06:19.220Z,97283.81
2018-03-27T11:08:46.709Z,97281.15
2018-03-27T11:11:14.254Z,97280.02
2018-03-27T11:13:41.779Z,97272.94
2018-03-27T11:16:09.345Z,97267.53
2018-03-27T11:18:36.906Z,97264.47
2018-03-27T11:21:04.460Z,97266.26
2018-03-27T11:23:32.064Z,97271.08
2018-03-27T11:25:59.650Z,97275.52
2018-03-27T11:28:27.258Z,97277.52
2018-03-27T11:30:54.850Z,97277.84
2018-03-27T11:33:22.438Z,97272.30
2018-03-27T11:35:50.038Z,97269.47
2018-03-27T11:38:17.586Z,97274.23
2018-03-27T11:40:45.135Z,97266.54
2018-03-27T11:43:12.687Z,97269.45
2018-03-27T11:45:40.202Z,97267.48
2018-03-27T11:48:07.774Z,97266.80
2018-03-27T11:50:35.374Z,97260.23
2018-03-27T11:53:02.952Z,97256.97
2018-03-27T11:55:30.471Z,97257.20
2018-03-27T11:57:58.007Z,97257.16
2018-03-27T12:00:25.500Z,97247.73
2018-03-27T12:02:53.006Z,97248.74
2018-03-27T12:05:20.579Z,97251.41
2018-03-27T12:07:48.074Z,97253.69
2018-03-27T12:10:15.576Z,97250.67
2018-03-27T12:12:43.103Z,97246.91
2018-03-27T12:15:10.590Z,97243.50
2018-03-27T12:17:38.090Z,97236.78
2018-03-27T12:20:05.614Z,97230.08
2018-03-27T12:22:33.136Z,97232.86
2018-03-27T12:25:00.652Z,97230.05
2018-03-27T12:27:28.217Z,97242.55
2018-03-27T12:29:55.715Z,97239.34
2018-03-27T12:32:23.206Z,97235.81
2018-03-27T12:34:50.736Z,97233.38
2018-03-27T12:37:18.223Z,97226.86
2018-03-27T12:39:45.719Z,97222.07
2018-03-27T12:42:13.295Z,97228.73
2018-03-27T12:44:40.806Z,97217.97
2018-03-27T12:47:08.301Z,97225.38
2018-03-27T12:49:35.819Z,97216.94
2018-03-27T12:52:03.311Z,97216.21
2018-03-27T12:54:30.810Z,97209.11
2018-03-27T12:56:58.384Z,97203.06
2018-03-27T12:59:25.904Z,97199.98
2018-03-27T13:01:53.430Z,97198.51
2018-03-27T13:04:20.972Z,97193.38
2018-03-27T13:06:48.465Z,97185.06
2018-03-27T13:09:16.014Z,97186.53
2018-03-27T13:11:43.606Z,97185.76
2018-03-27T13:14:11.077Z,97185.18
2018-03-27T13:16:38.566Z,97172.48
2018-03-27T13:19:06.095Z,97170.92
2018-03-27T13:21:33.596Z,97160.03
2018-03-27T13:24:01.128Z,97174.29
2018-03-27T13:26:28.642Z,97183.13
2018-03-27T13:28:56.130Z,97192.84
2018-03-27T13:31:23.628Z,97188.94
2018-03-27T13:33:51.161Z,97191.27
2018-03-27T13:36:19.814Z,97177.57
2018-03-27T13:38:47.313Z,97177.18
2018-03-27T13:41:14.847Z,97172.34
2018-03-27T13:43:42.341Z,97172.88
2018-03-27T13:46:09.882Z,97162.73
2018-03-27T13:48:37.401Z,97163.03
2018-03-27T13:51:04.927Z,97156.94
2018-03-27T13:53:32.429Z,97150.64
2018-03-27T13:55:59.967Z,97149.97
2018-03-27T13:58:27.503Z,97148.38
2018-03-27T14:00:54.992Z,97144.87
2018-03-27T14:03:22.521Z,97138.55
2018-03-27T14:05:50.005Z,97134.67
2018-03-27T14:08:17.504Z,97127.14
2018-03-27T14:10:45.047Z,97124.83
2018-03-27T14:13:12.547Z,97128.09
2018-03-27T14:15:40.044Z,97128.91
2018-03-27T14:18:07.576Z,97123.67
2018-03-27T14:20:35.074Z,97115.72
2018-03-27T14:23:02.571Z,97113.11
2018-03-27T14:25:30.114Z,97108.34
2018-03-27T14:27:57.618Z,97109.19
2018-03-27T14:30:25.106Z,97104.91
2018-03-27T14:32:52.633Z,97096.64
2018-03-27T14:35:20.140Z,97089.37
2018-03-27T14:37:47.634Z,97093.46
2018-03-27T14:40:15.151Z,97092.17
2018-03-27T14:42:42.641Z,97089.28
2018-03-27T14:45:10.178Z,97085.73
2018-03-27T14:47:37.704Z,97079.64
2018-03-27T14:50:05.204Z,97080.64
2018-03-27T14:52:32.704Z,97080.05
2018-03-27T14:55:00.278Z,97076.42
2018-03-27T14:57:27.770Z,97070.01
2018-03-27T14:59:55.258Z,97068.61
2018-03-27T15:02:22.788Z,97073.30
2018-03-27T15:04:50.331Z,97068.78
2018-03-27T15:07:17.826Z,97060.14
2018-03-27T15:09:45.342Z,97067.50
2018-03-27T15:12:12.958Z,97057.56
2018-03-27T15:14:40.739Z,97060.20
2018-03-27T15:17:08.250Z,97056.17
2018-03-27T15:19:35.739Z,97057.36
2018-03-27T15:22:03.235Z,97054.40
2018-03-27T15:24:30.747Z,97047.69
2018-03-27T15:26:58.283Z,97051.08
2018-03-27T15:29:25.768Z,97042.08
2018-03-27T15:31:53.306Z,97044.64
2018-03-27T15:34:20.856Z,97039.96
2018-03-27T15:36:48.362Z,97039.48
2018-03-27T15:39:15.907Z,97038.83
2018-03-27T15:41:43.406Z,97034.62
2018-03-27T15:44:10.943Z,97031.80
2018-03-27T15:46:38.463Z,97024.00
2018-03-27T15:49:05.960Z,97024.05
2018-03-27T15:51:33.469Z,97029.80
2018-03-27T15:54:01.013Z,97025.15
2018-03-27T15:56:28.518Z,97023.47
2018-03-27T15:58:56.015Z,97010.16
2018-03-27T16:01:23.550Z,97019.20
2018-03-27T16:03:51.048Z,97012.95
2018-03-27T16:06:18.547Z,97006.56
2018-03-27T16:08:46.070Z,97012.36
2018-03-27T16:11:13.595Z,97018.02
2018-03-27T16:13:41.103Z,97016.57
2018-03-27T16:16:08.656Z,97014.68
2018-03-27T16:18:36.152Z,97012.97
2018-03-27T16:21:03.679Z,97015.53
2018-03-27T16:23:31.210Z,97009.33
2018-03-27T16:25:58.752Z,97009.38
2018-03-27T16:28:26.267Z,97004.56
2018-03-27T16:30:55.395Z,97007.27
2018-03-27T16:33:22.919Z,97001.33
2018-03-27T16:35:50.410Z,97004.05
2018-03-27T16:38:18.323Z,97010.67
2018-03-27T16:40:45.839Z,97006.68
2018-03-27T16:43:13.459Z,97007.56
2018-03-27T16:45:41.002Z,97003.05
2018-03-27T16:48:08.623Z,97004.34
2018-03-27T16:50:36.116Z,97005.80
2018-03-27T16:53:03.638Z,97005.87
2018-03-27T16:55:31.123Z,96998.08
2018-03-27T16:57:58.621Z,96993.98
2018-03-27T17:00:27.213Z,96989.70
2018-03-27T17:02:54.878Z,96988.55
2018-03-27T17:05:22.392Z,96984.15
2018-03-27T17:07:49.906Z,96978.72
2018-03-27T17:10:17.611Z,96985.60
2018-03-27T17:12:45.307Z,96985.84
2018-03-27T17:15:12.851Z,96983.80
2018-03-27T17:17:40.358Z,96975.36
2018-03-27T17:20:07.989Z,96972.52
2018-03-27T17:22:36.554Z,96974.27
2018-03-27T17:25:04.107Z,96973.38
2018-03-27T17:27:31.619Z,96975.30
2018-03-27T17:29:59.166Z,96972.74
2018-03-27T17:32:26.816Z,96975.77
2018-03-27T17:34:54.455Z,96970.45
2018-03-27T17:37:22.599Z,96975.20
2018-03-27T17:39:50.115Z,96971.86
2018-03-27T17:42:17.770Z,96970.56
2018-03-27T17:44:45.301Z,96970.62
2018-03-27T17:47:12.791Z,96964.31
2018-03-27T17:49:40.280Z,96963.07
2018-03-27T17:52:07.798Z,96959.44
2018-03-27T17:54:35.294Z,96953.59
2018-03-27T17:57:02.791Z,96960.61
2018-03-27T17:59:30.298Z,96955.80
2018-03-27T18:01:57.799Z,96954.28
2018-03-27T18:04:25.316Z,96960.87
2018-03-27T18:06:52.839Z,96967.30
2018-03-27T18:09:20.343Z,96964.34
2018-03-27T18:11:47.834Z,96964.98
2018-03-27T18:14:15.374Z,96968.19
2018-03-27T18:16:42.854Z,96969.47
2018-03-27T18:19:10.378Z,96964.97
2018-03-27T18:21:37.898Z,96973.15
2018-03-27T18:24:05.387Z,96965.87
2018-03-27T18:26:32.885Z,96966.67
2018-03-27T18:29:00.403Z,96968.41
2018-03-27T18:31:27.889Z,96962.85
2018-03-27T18:33:55.391Z,96956.61
2018-03-27T18:36:22.909Z,96955.80
2018-03-27T18:38:50.393Z,96948.96
2018-03-27T18:41:17.878Z,96953.44
2018-03-27T18:43:45.399Z,96958.72
2018-03-27T18:46:12.895Z,96959.02
2018-03-27T18:48:40.403Z,96954.55
2018-03-27T18:51:07.963Z,96963.22
2018-03-27T18:53:35.453Z,96958.39
2018-03-27T18:56:02.944Z,96955.88
2018-03-27T18:58:30.462Z,96958.31
2018-03-27T19:00:57.955Z,96955.68
2018-03-27T19:03:25.458Z,96951.11
2018-03-27T19:05:52.978Z,96952.37
2018-03-27T19:08:20.494Z,96946.33
2018-03-27T19:10:48.032Z,96946.22
2018-03-27T19:13:15.561Z,96947.47
2018-03-27T19:15:43.051Z,96945.73
2018-03-27T19:18:10.548Z,96939.09
2018-03-27T19:20:38.067Z,96939.42
2018-03-27T19:23:05.679Z,96941.80
2018-03-27T19:25:33.115Z,96940.39
2018-03-27T19:28:00.626Z,96931.67
2018-03-27T19:30:28.135Z,96929.05
2018-03-27T19:32:55.659Z,96937.31
2018-03-27T19:35:23.170Z,96932.45
2018-03-27T19:37:50.675Z,96942.80
2018-03-27T19:40:18.165Z,96938.81
2018-03-27T19:42:45.686Z,96941.52
2018-03-27T19:45:13.189Z,96942.32
2018-03-27T19:47:40.689Z,96946.02
2018-03-27T19:50:08.231Z,96939.70
2018-03-27T19:52:35.727Z,96929.00
2018-03-27T19:55:03.215Z,96928.55
2018-03-27T19:57:30.740Z,96922.44
2018-03-27T19:59:58.255Z,96915.08
2018-03-27T20:02:25.742Z,96917.45
2018-03-27T20:04:53.257Z,96915.53
2018-03-27T20:07:20.746Z,96919.84
2018-03-27T20:09:48.230Z,96919.24
2018-03-27T20:12:15.741Z,96914.50
2018-03-27T20:14:43.217Z,96914.58
2018-03-27T20:17:10.707Z,96918.37
2018-03-27T20:19:38.228Z,96843.62
2018-03-27T20:22:05.746Z,96916.24
2018-03-27T20:24:33.246Z,96916.00
2018-03-27T20:27:00.767Z,96911.30
2018-03-27T20:29:28.250Z,96905.91
2018-03-27T20:31:55.736Z,96910.17
2018-03-27T20:34:23.296Z,96911.30
2018-03-27T20:36:50.811Z,96911.70
2018-03-27T20:39:18.295Z,96911.83
2018-03-27T20:41:45.819Z,96913.59
2018-03-27T20:44:13.307Z,96914.52
2018-03-27T20:46:40.789Z,96909.73
2018-03-27T20:49:08.323Z,96912.22
2018-03-27T20:51:35.824Z,96917.01
2018-03-27T20:54:03.318Z,96921.64
2018-03-27T20:56:30.903Z,96911.30
2018-03-27T20:58:58.386Z,96917.77
2018-03-27T21:01:26.471Z,96918.90
2018-03-27T21:03:54.010Z,96917.70
2018-03-27T21:06:21.531Z,96915.89
2018-03-27T21:08:49.018Z,96924.58
2018-03-27T21:11:16.541Z,96916.58
2018-03-27T21:13:44.027Z,96911.59
2018-03-27T21:16:11.567Z,96903.05
2018-03-27T21:18:39.089Z,96902.49
2018-03-27T21:21:06.650Z,96906.47
2018-03-27T21:23:34.102Z,96887.73
2018-03-27T21:26:01.643Z,96897.26
2018-03-27T21:28:29.139Z,96893.45
2018-03-27T21:30:56.658Z,96903.98
2018-03-27T21:33:24.227Z,96898.83
2018-03-27T21:35:51.714Z,96895.50
2018-03-27T21:38:19.198Z,96900.80
2018-03-27T21:40:46.720Z,96894.64
2018-03-27T21:43:14.230Z,96896.45
2018-03-27T21:45:41.715Z,96898.67
2018-03-27T21:48:09.240Z,96892.31
2018-03-27T21:50:36.734Z,96882.81
2018-03-27T21:53:04.226Z,96883.70
2018-03-27T21:55:31.742Z,96881.67
2018-03-27T21:57:59.246Z,96872.73
2018-03-27T22:00:26.740Z,96874.30
2018-03-27T22:02:54.263Z,96867.18
2018-03-27T22:05:21.750Z,96863.92
2018-03-27T22:07:49.306Z,96864.39
2018-03-27T22:10:16.824Z,96861.32
2018-03-27T22:12:44.328Z,96859.58
2018-03-27T22:15:11.824Z,96868.54
2018-03-27T22:17:39.360Z,96868.95
2018-03-27T22:20:06.863Z,96865.28
2018-03-27T22:22:34.363Z,96864.47
2018-03-27T22:25:01.878Z,96857.10
2018-03-27T22:27:29.358Z,96852.48
2018-03-27T22:29:56.903Z,96853.69
2018-03-27T22:32:24.455Z,96849.42
2018-03-27T22:34:51.942Z,96849.38
2018-03-27T22:37:19.442Z,96843.07
2018-03-27T22:39:46.969Z,96847.73
2018-03-27T22:42:14.459Z,96852.48
2018-03-27T22:44:41.950Z,96850.41
2018-03-27T22:47:09.462Z,96861.09
2018-03-27T22:49:36.956Z,96856.59
2018-03-27T22:52:04.469Z,96849.98
2018-03-27T22:54:32.009Z,96857.22
2018-03-27T22:56:59.493Z,96855.30
2018-03-27T22:59:26.983Z,96856.76
2018-03-27T23:01:54.508Z,96855.64
2018-03-27T23:04:22.019Z,96849.84
2018-03-27T23:06:49.509Z,96847.16
2018-03-27T23:09:17.039Z,96843.83
2018-03-27T23:11:44.539Z,96843.36
2018-03-27T23:14:12.083Z,96834.28
2018-03-27T23:16:39.599Z,96833.13
2018-03-27T23:19:07.105Z,96828.75
2018-03-27T23:21:34.591Z,96835.19
2018-03-27T23:24:02.108Z,96837.02
2018-03-27T23:26:29.598Z,96837.30
2018-03-27T23:28:57.096Z,96830.59
2018-03-27T23:31:24.623Z,96830.91
2018-03-27T23:33:52.123Z,96831.16
2018-03-27T23:36:19.606Z,96830.97
2018-03-27T23:38:47.127Z,96811.77
2018-03-27T23:41:14.618Z,96825.45
2018-03-27T23:43:42.115Z,96832.93
2018-03-27T23:46:09.658Z,96831.49
2018-03-27T23:48:37.153Z,96828.48
2018-03-27T23:51:04.646Z,96834.84
2018-03-27T23:53:32.162Z,96829.02
2018-03-27T23:55:59.656Z,96827.90
2018-03-27T23:58:27.167Z,96833.77
